Time;durP1;ratioP1;P1;durP2;ratioP2;P2;SDS_P1;SDS_P2;PMS_P1;PMS_P2;Temp;Humidity;BMP_temperature;BMP_pressure;BME280_temperature;BME280_humidity;BME280_pressure;Samples;Min_cycle;Max_cycle;Signal;HPM_P1;HPM_P2
2022/05/30 00:01:21;;;;;;;1.70;1.20;;;4.90;99.90;;;;;;5061207;22;20045;-78
2022/05/30 00:03:47;;;;;;;0.97;0.97;;;4.90;99.90;;;;;;5043419;28;20027;-78
2022/05/30 00:06:15;;;;;;;1.03;1.03;;;4.80;99.90;;;;;;5033686;28;20018;-78
2022/05/30 00:08:41;;;;;;;1.10;1.10;;;4.80;99.90;;;;;;5031705;28;20033;-78
2022/05/30 00:11:09;;;;;;;1.43;1.23;;;4.70;99.90;;;;;;5032066;28;20017;-78
2022/05/30 00:13:35;;;;;;;0.90;0.90;;;4.70;99.90;;;;;;5032245;28;20469;-77
2022/05/30 00:16:10;;;;;;;2.23;1.37;;;4.70;99.90;;;;;;5031854;28;20017;-78
2022/05/30 00:18:36;;;;;;;1.40;1.30;;;4.50;99.90;;;;;;5032381;28;20022;-77
2022/05/30 00:21:03;;;;;;;1.20;1.10;;;4.50;99.90;;;;;;5032349;28;20538;-78
2022/05/30 00:23:28;;;;;;;1.17;1.17;;;4.50;99.90;;;;;;5033066;28;20040;-78
2022/05/30 00:25:54;;;;;;;1.40;1.20;;;4.50;99.90;;;;;;5033268;28;20013;-78
2022/05/30 00:28:21;;;;;;;1.33;1.27;;;4.30;99.90;;;;;;5033242;28;20060;-78
2022/05/30 00:30:48;;;;;;;2.83;1.20;;;4.30;99.90;;;;;;5037260;28;20532;-78
2022/05/30 00:33:14;;;;;;;0.90;0.90;;;4.10;99.90;;;;;;5015397;28;20529;-78
2022/05/30 00:35:41;;;;;;;1.77;1.17;;;4.10;99.90;;;;;;5033076;28;20524;-78
2022/05/30 00:38:07;;;;;;;1.80;1.43;;;4.10;99.90;;;;;;5032906;28;20048;-77
2022/05/30 00:40:35;;;;;;;1.10;1.10;;;4.10;99.90;;;;;;5032471;28;20049;-77
2022/05/30 00:43:28;;;;;;;1.33;1.23;;;4.00;99.90;;;;;;5032564;28;20109;-78
2022/05/30 00:45:56;;;;;;;2.37;1.17;;;4.00;99.90;;;;;;5014475;28;20013;-78
2022/05/30 00:48:28;;;;;;;1.30;1.20;;;4.00;99.90;;;;;;5032516;28;20029;-78
2022/05/30 00:50:59;;;;;;;1.00;1.00;;;4.10;99.90;;;;;;5039559;28;20049;-78
2022/05/30 00:53:26;;;;;;;5.23;1.30;;;4.10;99.90;;;;;;5014855;28;20029;-78
2022/05/30 00:55:52;;;;;;;1.85;1.63;;;4.20;99.90;;;;;;5032694;28;20017;-77
2022/05/30 00:58:19;;;;;;;1.30;1.20;;;4.20;99.90;;;;;;5032382;28;20022;-77
2022/05/30 01:00:46;;;;;;;2.33;1.17;;;4.20;99.90;;;;;;5054194;22;20052;-82
2022/05/30 01:08:41;;;;;;;1.20;1.20;;;3.90;99.90;;;;;;5033189;28;20121;-82
2022/05/30 01:11:07;;;;;;;1.40;1.30;;;3.90;99.90;;;;;;5014478;28;20394;-82
2022/05/30 01:13:32;;;;;;;1.00;1.00;;;3.80;99.90;;;;;;5038094;28;20367;-82
2022/05/30 01:15:58;;;;;;;1.07;0.97;;;3.70;99.90;;;;;;5032092;28;20017;-82
2022/05/30 01:18:27;;;;;;;1.20;1.17;;;3.60;99.90;;;;;;5032325;28;20095;-83
2022/05/30 01:20:53;;;;;;;0.90;0.90;;;3.60;99.90;;;;;;5038266;28;20394;-82
2022/05/30 01:24:14;;;;;;;1.23;1.13;;;3.60;99.90;;;;;;5031832;28;20082;-82
2022/05/30 01:26:49;;;;;;;1.80;1.13;;;3.60;99.90;;;;;;4990481;28;20033;-83
2022/05/30 01:29:22;;;;;;;1.10;1.10;;;3.70;99.90;;;;;;5024726;28;20124;-83
2022/05/30 01:31:47;;;;;;;1.10;1.07;;;3.60;99.90;;;;;;5038632;28;20026;-82
2022/05/30 01:34:13;;;;;;;1.10;1.10;;;3.60;99.90;;;;;;5030671;28;20032;-82
2022/05/30 01:36:39;;;;;;;1.33;1.20;;;3.50;99.90;;;;;;5014120;28;20028;-82
2022/05/30 01:39:05;;;;;;;2.53;1.00;;;3.60;99.90;;;;;;5031580;28;20383;-82
2022/05/30 01:41:31;;;;;;;1.30;1.20;;;3.60;99.90;;;;;;5033917;28;20071;-82
2022/05/30 01:43:57;;;;;;;1.00;1.00;;;3.60;99.90;;;;;;5035301;28;20406;-82
2022/05/30 01:46:24;;;;;;;1.60;1.50;;;3.70;99.90;;;;;;5031447;28;20080;-82
2022/05/30 01:48:51;;;;;;;1.43;1.20;;;3.60;99.90;;;;;;5013673;28;20071;-83
2022/05/30 01:51:19;;;;;;;1.30;1.20;;;3.50;99.90;;;;;;5031008;28;20025;-82
2022/05/30 01:53:46;;;;;;;1.50;1.40;;;3.40;99.90;;;;;;5031700;28;20028;-83
2022/05/30 01:56:12;;;;;;;1.87;1.30;;;3.40;99.90;;;;;;5031473;28;20025;-82
2022/05/30 01:58:38;;;;;;;1.37;1.23;;;3.30;99.90;;;;;;5031416;28;20040;-82
2022/05/30 02:01:06;;;;;;;0.93;0.93;;;3.40;99.90;;;;;;5058498;22;20037;-76
2022/05/30 02:03:33;;;;;;;1.43;1.07;;;3.40;99.90;;;;;;5031389;28;20462;-77
2022/05/30 02:06:00;;;;;;;2.63;1.10;;;3.50;99.90;;;;;;5033906;28;20072;-77
2022/05/30 02:08:26;;;;;;;1.40;1.07;;;3.60;99.90;;;;;;5031255;28;20030;-77
2022/05/30 02:10:52;;;;;;;1.13;1.03;;;3.60;99.90;;;;;;5031404;28;20029;-77
2022/05/30 02:13:17;;;;;;;1.00;1.00;;;3.60;99.90;;;;;;5037323;28;20045;-76
2022/05/30 02:18:27;;;;;;;1.30;1.10;;;3.50;99.90;;;;;;5026308;28;20060;-77
2022/05/30 02:20:53;;;;;;;1.20;1.10;;;3.50;99.90;;;;;;5024302;28;20459;-77
2022/05/30 02:23:18;;;;;;;2.17;1.70;;;3.50;99.90;;;;;;5031528;28;20028;-77
2022/05/30 02:25:45;;;;;;;2.40;1.13;;;3.50;99.90;;;;;;5031277;28;20045;-77
2022/05/30 02:28:11;;;;;;;1.57;1.10;;;3.30;99.90;;;;;;5030939;28;20092;-78
2022/05/30 02:30:37;;;;;;;1.50;1.17;;;3.30;99.90;;;;;;5030174;28;20025;-77
2022/05/30 02:38:31;;;;;;;1.20;1.10;;;3.20;99.90;;;;;;5034326;28;20044;-77
2022/05/30 02:40:57;;;;;;;1.57;1.47;;;3.20;99.90;;;;;;5034199;28;20021;-77
2022/05/30 02:43:23;;;;;;;1.60;1.50;;;3.20;99.90;;;;;;5040417;28;20101;-77
2022/05/30 02:45:48;;;;;;;1.50;1.10;;;3.20;99.90;;;;;;5034028;28;20033;-77
2022/05/30 02:48:14;;;;;;;1.20;1.20;;;3.20;99.90;;;;;;5034328;28;20437;-77
2022/05/30 02:50:40;;;;;;;4.73;1.43;;;3.10;99.90;;;;;;5034076;28;20021;-76
2022/05/30 02:53:06;;;;;;;1.80;1.37;;;3.10;99.90;;;;;;5034012;28;20041;-76
2022/05/30 02:55:31;;;;;;;1.03;1.00;;;3.00;99.90;;;;;;5034093;28;20080;-76
2022/05/30 02:57:57;;;;;;;1.57;1.47;;;2.90;99.90;;;;;;5034600;28;20026;-77
2022/05/30 03:00:26;;;;;;;4.63;1.23;;;2.80;99.90;;;;;;5052383;22;20092;-83
2022/05/30 03:02:52;;;;;;;1.17;1.17;;;2.80;99.90;;;;;;5017543;28;20050;-82
2022/05/30 03:05:18;;;;;;;1.63;1.30;;;2.80;99.90;;;;;;5013906;28;20111;-82
2022/05/30 03:07:44;;;;;;;1.10;1.10;;;2.80;99.90;;;;;;5013902;28;20037;-82
2022/05/30 03:10:10;;;;;;;2.83;1.40;;;2.80;99.90;;;;;;5007466;28;20031;-83
2022/05/30 03:12:35;;;;;;;1.53;1.33;;;2.80;99.90;;;;;;5007658;28;20030;-82
2022/05/30 03:15:01;;;;;;;1.20;1.20;;;2.80;99.90;;;;;;4996194;28;20049;-82
2022/05/30 03:17:26;;;;;;;1.53;1.40;;;2.70;99.90;;;;;;5010148;28;20030;-82
2022/05/30 03:19:52;;;;;;;1.00;1.00;;;2.70;99.90;;;;;;4995706;28;20029;-83
2022/05/30 03:22:18;;;;;;;1.47;1.37;;;2.70;99.90;;;;;;4996056;28;20030;-83
2022/05/30 03:24:44;;;;;;;1.80;1.20;;;2.70;99.90;;;;;;4994446;28;20022;-83
2022/05/30 03:27:10;;;;;;;1.60;1.50;;;2.60;99.90;;;;;;5001917;28;20027;-83
2022/05/30 03:29:36;;;;;;;1.13;1.13;;;2.70;99.90;;;;;;4995344;28;20120;-82
2022/05/30 03:32:01;;;;;;;1.73;1.40;;;2.60;99.90;;;;;;4994738;28;20117;-82
2022/05/30 03:34:27;;;;;;;1.47;1.27;;;2.60;99.90;;;;;;4994486;28;20019;-83
2022/05/30 03:36:53;;;;;;;1.20;1.10;;;2.60;99.90;;;;;;4995240;28;20096;-82
2022/05/30 03:39:19;;;;;;;2.00;1.57;;;2.60;99.90;;;;;;4995131;28;20050;-83
2022/05/30 03:41:45;;;;;;;1.60;1.50;;;2.70;99.90;;;;;;5002449;28;20059;-82
2022/05/30 03:44:10;;;;;;;1.57;1.47;;;2.80;99.90;;;;;;4998458;28;20057;-82
2022/05/30 03:46:36;;;;;;;1.10;1.10;;;2.70;99.90;;;;;;4995220;28;20057;-81
2022/05/30 03:49:02;;;;;;;1.30;1.30;;;2.70;99.90;;;;;;4994647;28;20125;-82
2022/05/30 03:51:28;;;;;;;1.83;1.33;;;2.60;99.90;;;;;;4995091;28;20030;-82
2022/05/30 03:53:54;;;;;;;2.30;1.27;;;2.60;99.90;;;;;;5010005;28;20039;-83
2022/05/30 03:56:20;;;;;;;1.77;1.63;;;2.50;99.90;;;;;;4995033;28;20085;-82
2022/05/30 03:58:46;;;;;;;1.10;1.10;;;2.50;99.90;;;;;;4995210;28;20030;-82
2022/05/30 04:01:11;;;;;;;1.30;1.20;;;2.50;99.90;;;;;;5094632;23;20100;-77
2022/05/30 04:03:39;;;;;;;1.50;1.40;;;2.50;99.90;;;;;;5095437;28;20025;-77
2022/05/30 04:06:05;;;;;;;1.90;1.80;;;2.60;99.90;;;;;;5094125;28;20126;-77
2022/05/30 04:08:31;;;;;;;1.83;1.53;;;2.70;99.90;;;;;;5095254;28;20024;-76
2022/05/30 04:10:57;;;;;;;1.53;1.43;;;2.70;99.90;;;;;;5085857;28;20157;-77
2022/05/30 04:13:23;;;;;;;1.43;1.33;;;2.60;99.90;;;;;;5080352;28;20040;-77
2022/05/30 04:15:49;;;;;;;2.77;1.57;;;2.60;99.90;;;;;;5081379;28;20135;-76
2022/05/30 04:18:15;;;;;;;1.33;1.33;;;2.70;99.90;;;;;;5083753;28;20525;-76
2022/05/30 04:20:41;;;;;;;1.93;1.30;;;2.70;99.90;;;;;;5080291;28;20055;-76
2022/05/30 04:23:07;;;;;;;1.37;1.27;;;2.70;99.90;;;;;;5080841;28;20060;-76
2022/05/30 04:25:33;;;;;;;1.00;1.00;;;2.80;99.90;;;;;;5083323;28;20028;-76
2022/05/30 04:27:59;;;;;;;1.77;1.20;;;2.80;99.90;;;;;;5079379;28;20035;-76
2022/05/30 04:30:25;;;;;;;1.07;1.03;;;2.80;99.90;;;;;;5081253;28;20043;-77
2022/05/30 04:32:51;;;;;;;1.30;1.20;;;2.90;99.90;;;;;;5084592;28;20089;-77
2022/05/30 04:35:18;;;;;;;4.77;1.27;;;2.90;99.90;;;;;;5080076;28;20028;-77
2022/05/30 04:37:46;;;;;;;1.87;1.40;;;3.10;99.90;;;;;;5081986;28;20603;-77
2022/05/30 04:40:15;;;;;;;0.93;0.93;;;3.00;99.90;;;;;;5083890;28;20527;-77
2022/05/30 04:42:41;;;;;;;2.37;1.23;;;3.20;99.90;;;;;;5079233;28;20016;-76
2022/05/30 04:45:07;;;;;;;2.60;1.07;;;3.20;99.90;;;;;;5079727;28;20384;-76
2022/05/30 04:47:35;;;;;;;2.90;1.20;;;3.20;99.90;;;;;;5080198;28;20040;-76
2022/05/30 04:50:03;;;;;;;2.37;1.10;;;3.30;99.90;;;;;;5084535;28;20107;-76
2022/05/30 04:52:29;;;;;;;2.80;1.27;;;3.40;99.90;;;;;;5079784;28;20029;-76
2022/05/30 04:54:54;;;;;;;6.20;1.57;;;3.40;99.90;;;;;;5080788;28;20032;-77
2022/05/30 04:57:20;;;;;;;1.83;1.20;;;3.50;99.90;;;;;;5083259;28;20028;-77
2022/05/30 04:59:45;;;;;;;2.90;1.13;;;3.60;99.90;;;;;;5092171;22;20109;-83
2022/05/30 05:02:13;;;;;;;1.83;1.00;;;3.60;99.90;;;;;;5038597;28;20029;-80
2022/05/30 05:04:39;;;;;;;1.67;1.20;;;3.70;99.90;;;;;;5031948;28;20047;-80
2022/05/30 05:07:06;;;;;;;1.63;1.53;;;3.70;99.90;;;;;;5031887;28;20025;-80
2022/05/30 05:09:44;;;;;;;2.37;1.30;;;3.70;99.90;;;;;;5030429;28;20044;-80
2022/05/30 05:12:10;;;;;;;3.83;1.10;;;3.80;99.90;;;;;;5034531;28;20048;-80
2022/05/30 05:14:36;;;;;;;2.17;1.27;;;3.90;99.90;;;;;;5031808;28;20030;-80
2022/05/30 05:17:04;;;;;;;1.30;1.20;;;4.10;99.90;;;;;;5031426;28;20032;-80
2022/05/30 05:19:31;;;;;;;1.43;1.33;;;4.20;99.90;;;;;;5031269;28;20104;-80
2022/05/30 05:21:56;;;;;;;1.63;1.10;;;4.50;99.90;;;;;;5031699;28;20025;-80
2022/05/30 05:24:22;;;;;;;1.10;1.00;;;4.70;99.90;;;;;;5031739;28;20146;-80
2022/05/30 05:26:49;;;;;;;1.60;1.15;;;4.70;99.90;;;;;;5031251;28;20485;-80
2022/05/30 05:29:17;;;;;;;1.90;1.15;;;4.90;99.90;;;;;;5031091;28;20486;-81
2022/05/30 05:31:43;;;;;;;1.30;1.20;;;4.90;99.90;;;;;;5031398;28;20482;-81
2022/05/30 05:34:11;;;;;;;1.10;1.00;;;5.00;99.90;;;;;;5031149;28;20017;-81
2022/05/30 05:36:40;;;;;;;1.63;1.38;;;5.00;99.90;;;;;;5031193;28;20025;-81
2022/05/30 05:39:07;;;;;;;1.15;0.90;;;5.10;99.90;;;;;;5031026;28;20025;-81
2022/05/30 05:41:33;;;;;;;1.85;1.13;;;5.10;99.90;;;;;;5032825;28;20036;-80
2022/05/30 05:43:59;;;;;;;2.15;1.42;;;5.20;99.90;;;;;;5032863;28;20139;-81
2022/05/30 05:46:27;;;;;;;1.20;1.20;;;5.30;99.90;;;;;;5031074;28;20034;-81
2022/05/30 05:48:54;;;;;;;3.00;1.33;;;5.40;99.90;;;;;;5030538;28;20021;-81
2022/05/30 05:51:21;;;;;;;1.88;0.90;;;5.50;99.90;;;;;;5029649;28;20029;-81
2022/05/30 05:53:48;;;;;;;2.33;1.88;;;5.60;99.90;;;;;;5029598;28;20517;-81
2022/05/30 05:56:39;;;;;;;1.70;1.60;;;5.80;99.90;;;;;;5030336;28;20029;-81
2022/05/30 05:59:05;;;;;;;1.42;1.33;;;5.90;99.90;;;;;;5020806;28;20033;-81
2022/05/30 06:01:33;;;;;;;1.20;1.10;;;6.10;99.90;;;;;;5029954;28;20505;-81
2022/05/30 06:04:03;;;;;;;3.55;1.38;;;6.20;99.90;;;;;;5030295;28;20026;-81
2022/05/30 06:06:29;;;;;;;2.75;2.10;;;6.40;99.90;;;;;;5030631;28;20482;-81
2022/05/30 06:08:56;;;;;;;2.72;2.08;;;6.50;99.90;;;;;;5030699;28;20024;-81
2022/05/30 06:11:24;;;;;;;2.38;1.50;;;6.70;99.90;;;;;;5030665;28;20032;-81
2022/05/30 06:13:50;;;;;;;5.07;1.88;;;6.80;99.90;;;;;;5034199;28;20029;-81
2022/05/30 06:16:22;;;;;;;2.35;1.90;;;7.10;99.90;;;;;;5030883;28;20021;-81
2022/05/30 06:18:49;;;;;;;1.63;1.50;;;7.60;99.90;;;;;;5030579;28;20032;-81
2022/05/30 06:21:15;;;;;;;1.60;1.50;;;8.20;99.90;;;;;;5029179;28;20032;-82
2022/05/30 06:23:44;;;;;;;4.75;1.42;;;8.90;99.90;;;;;;5030561;28;20480;-81
2022/05/30 06:26:10;;;;;;;2.10;1.42;;;9.50;99.90;;;;;;5029969;28;20458;-81
2022/05/30 06:28:38;;;;;;;1.95;1.27;;;9.90;99.90;;;;;;5030035;28;20497;-81
2022/05/30 06:31:15;;;;;;;2.35;1.23;;;10.20;99.90;;;;;;5051621;22;20043;-78
2022/05/30 06:33:41;;;;;;;1.40;1.00;;;10.60;99.90;;;;;;5016551;28;20057;-78
2022/05/30 06:36:09;;;;;;;2.05;1.17;;;10.80;99.90;;;;;;5011687;28;20463;-78
2022/05/30 06:38:36;;;;;;;4.80;1.00;;;10.60;99.90;;;;;;5011472;28;20053;-78
2022/05/30 06:41:12;;;;;;;1.75;0.70;;;10.70;99.90;;;;;;4993605;28;20442;-78
2022/05/30 06:43:39;;;;;;;0.60;0.60;;;11.10;99.90;;;;;;5005888;28;20022;-78
2022/05/30 06:46:05;;;;;;;1.23;0.82;;;11.30;99.90;;;;;;5011119;28;20513;-78
2022/05/30 06:48:31;;;;;;;1.90;1.38;;;11.10;99.90;;;;;;5011442;28;20026;-79
2022/05/30 06:50:57;;;;;;;1.42;1.10;;;10.80;99.90;;;;;;5011473;28;20520;-79
2022/05/30 06:53:23;;;;;;;1.83;1.58;;;10.60;99.90;;;;;;4993292;28;20368;-79
2022/05/30 06:55:50;;;;;;;1.52;1.17;;;10.60;99.90;;;;;;5011442;28;20541;-79
2022/05/30 06:58:19;;;;;;;1.63;1.10;;;10.50;99.90;;;;;;5010777;28;20022;-78
2022/05/30 07:00:46;;;;;;;1.20;1.10;;;10.40;99.90;;;;;;5011811;28;20045;-79
2022/05/30 07:03:16;;;;;;;1.35;1.02;;;10.30;99.90;;;;;;5010050;28;20022;-79
2022/05/30 07:05:43;;;;;;;2.72;0.88;;;10.50;99.90;;;;;;5011258;28;20130;-79
2022/05/30 07:08:10;;;;;;;1.30;0.80;;;10.70;99.90;;;;;;5011219;28;20022;-79
2022/05/30 07:10:37;;;;;;;1.33;0.93;;;10.90;99.90;;;;;;5011125;28;20483;-79
2022/05/30 07:13:04;;;;;;;3.13;1.45;;;11.20;99.90;;;;;;5010812;28;20120;-79
2022/05/30 07:15:34;;;;;;;2.67;0.90;;;11.40;99.90;;;;;;5010637;28;20042;-79
2022/05/30 07:18:06;;;;;;;0.88;0.88;;;11.70;99.90;;;;;;5011311;28;20509;-79
2022/05/30 07:20:32;;;;;;;1.05;0.47;;;11.90;99.90;;;;;;5014379;28;20017;-79
2022/05/30 07:22:57;;;;;;;1.75;0.57;;;12.00;99.90;;;;;;5014701;28;20475;-79
2022/05/30 07:25:23;;;;;;;2.22;0.50;;;12.10;99.90;;;;;;5012881;28;20072;-79
2022/05/30 07:27:48;;;;;;;1.77;0.90;;;12.20;99.90;;;;;;5014706;28;20029;-88
2022/05/30 07:30:16;;;;;;;2.28;0.85;;;12.40;99.90;;;;;;5041224;22;20132;-89
2022/05/30 07:32:41;;;;;;;0.95;0.60;;;12.50;99.90;;;;;;5034015;28;20037;-86
2022/05/30 07:35:07;;;;;;;0.77;0.32;;;12.50;99.90;;;;;;5033993;28;20079;-83
2022/05/30 07:37:33;;;;;;;0.40;0.40;;;12.50;99.90;;;;;;5034028;28;20467;-84
2022/05/30 07:39:59;;;;;;;1.55;0.30;;;12.50;99.90;;;;;;5033932;28;20079;-83
2022/05/30 07:42:25;;;;;;;2.05;0.57;;;12.50;99.90;;;;;;5033453;28;20030;-82
2022/05/30 07:44:50;;;;;;;1.65;0.55;;;12.50;99.90;;;;;;5032572;28;20039;-83
2022/05/30 07:47:17;;;;;;;1.67;0.60;;;12.60;99.90;;;;;;5033675;28;20033;-83
2022/05/30 07:49:44;;;;;;;1.65;0.43;;;12.80;99.90;;;;;;5033584;28;20376;-83
2022/05/30 07:52:10;;;;;;;1.25;0.60;;;13.00;99.90;;;;;;5033504;28;20037;-83
2022/05/30 07:54:36;;;;;;;3.42;0.70;;;13.20;99.90;;;;;;5033473;28;20036;-83
2022/05/30 07:57:06;;;;;;;1.08;0.43;;;13.50;99.90;;;;;;5033636;28;20026;-84
2022/05/30 07:59:35;;;;;;;0.82;0.40;;;13.70;99.90;;;;;;5033649;28;20746;-86
2022/05/30 08:02:01;;;;;;;2.63;0.52;;;14.00;99.90;;;;;;5032949;28;20017;-83
2022/05/30 08:04:26;;;;;;;1.35;0.75;;;14.50;99.90;;;;;;5032859;28;20034;-83
2022/05/30 08:06:52;;;;;;;0.73;0.40;;;14.70;99.90;;;;;;5032979;28;20029;-83
2022/05/30 08:09:18;;;;;;;1.23;0.20;;;14.90;95.90;;;;;;5033044;28;20049;-84
2022/05/30 08:11:44;;;;;;;0.95;0.65;;;15.30;95.20;;;;;;5033380;28;20047;-82
2022/05/30 08:14:10;;;;;;;0.95;0.40;;;15.70;92.80;;;;;;5032924;28;20409;-82
2022/05/30 08:16:37;;;;;;;1.77;0.35;;;16.10;81.90;;;;;;5032682;28;20522;-83
2022/05/30 08:19:07;;;;;;;1.33;0.30;;;16.20;80.60;;;;;;5033153;28;20466;-82
2022/05/30 08:21:33;;;;;;;0.73;0.22;;;16.60;81.30;;;;;;5032823;28;20489;-83
2022/05/30 08:23:59;;;;;;;0.40;0.40;;;17.00;83.20;;;;;;5032847;28;20381;-83
2022/05/30 08:26:25;;;;;;;2.83;0.28;;;17.30;74.80;;;;;;5032730;28;20024;-82
2022/05/30 08:28:51;;;;;;;0.77;0.20;;;17.80;69.40;;;;;;5032043;28;20083;-83
2022/05/30 08:31:17;;;;;;;1.77;0.20;;;18.20;72.30;;;;;;5071139;22;20571;-79
2022/05/30 08:33:43;;;;;;;0.80;0.15;;;18.60;68.80;;;;;;5051213;28;20037;-80
2022/05/30 08:36:11;;;;;;;3.10;0.28;;;19.00;64.60;;;;;;5052130;28;20021;-79
2022/05/30 08:38:37;;;;;;;1.35;0.30;;;19.10;65.40;;;;;;5052611;28;20025;-79
2022/05/30 08:43:53;;;;;;;3.08;0.47;;;19.10;61.00;;;;;;5051721;28;20075;-80
2022/05/30 08:46:36;;;;;;;2.30;0.50;;;20.10;60.60;;;;;;5052166;28;20488;-80
2022/05/30 08:49:09;;;;;;;1.13;0.38;;;20.90;60.40;;;;;;5045781;28;20056;-80
2022/05/30 08:52:07;;;;;;;1.98;0.30;;;21.30;54.00;;;;;;5051880;28;20039;-80
2022/05/30 08:54:58;;;;;;;0.82;0.30;;;20.90;56.80;;;;;;5007825;28;20032;-81
2022/05/30 08:58:01;;;;;;;2.83;0.20;;;20.30;53.90;;;;;;5047168;28;20028;-80
2022/05/30 09:00:45;;;;;;;0.22;0.13;;;19.80;57.80;;;;;;5051247;28;20021;-81
2022/05/30 09:04:07;;;;;;;0.90;0.28;;;19.60;56.10;;;;;;5051372;28;20104;-80
2022/05/30 09:06:56;;;;;;;0.60;0.20;;;19.30;61.80;;;;;;5047757;28;20025;-80
2022/05/30 09:09:29;;;;;;;1.58;0.20;;;19.00;61.90;;;;;;5033279;28;20450;-80
2022/05/30 09:12:05;;;;;;;0.20;0.20;;;19.20;63.80;;;;;;5051187;28;20080;-80
2022/05/30 09:14:51;;;;;;;1.70;0.20;;;19.50;61.50;;;;;;5051838;28;20363;-79
2022/05/30 09:17:23;;;;;;;0.60;0.13;;;19.60;61.30;;;;;;5045952;28;20028;-79
2022/05/30 09:19:49;;;;;;;4.25;0.45;;;19.80;61.80;;;;;;5026781;28;20405;-79
2022/05/30 09:22:16;;;;;;;0.68;0.25;;;20.30;60.60;;;;;;5051164;28;20505;-81
2022/05/30 09:25:55;;;;;;;0.30;0.20;;;20.60;56.10;;;;;;5050962;28;20103;-80
2022/05/30 09:27:30;;;;;;;0.65;0.30;;;20.80;54.50;;;;;;5050321;28;20029;-80
2022/05/30 09:30:00;;;;;;;0.20;0.20;;;20.70;55.00;;;;;;5071107;22;20106;-79
2022/05/30 09:32:48;;;;;;;1.33;0.30;;;21.00;54.80;;;;;;5050339;28;20393;-79
2022/05/30 09:35:28;;;;;;;0.20;0.20;;;21.00;54.10;;;;;;5033070;28;20020;-79
2022/05/30 09:38:19;;;;;;;1.73;0.20;;;20.60;53.80;;;;;;5051350;28;20016;-79
2022/05/30 09:40:50;;;;;;;1.55;0.40;;;20.80;52.30;;;;;;5038318;28;20082;-79
2022/05/30 09:43:26;;;;;;;0.52;0.10;;;20.50;56.00;;;;;;5028428;28;20028;-79
2022/05/30 09:45:52;;;;;;;0.85;0.20;;;21.00;54.80;;;;;;5050354;28;20033;-79
2022/05/30 09:48:19;;;;;;;0.98;0.30;;;20.80;55.10;;;;;;5050841;28;20021;-79
2022/05/30 09:50:54;;;;;;;0.30;0.13;;;20.20;57.10;;;;;;5050673;28;20028;-79
2022/05/30 09:53:41;;;;;;;1.25;0.20;;;20.30;60.80;;;;;;5032784;28;20305;-79
2022/05/30 09:56:09;;;;;;;1.50;0.32;;;20.60;55.60;;;;;;5050928;28;20070;-78
2022/05/30 09:59:09;;;;;;;1.35;0.20;;;20.60;54.40;;;;;;5050922;28;20029;-79
2022/05/30 10:01:36;;;;;;;0.30;0.20;;;20.50;53.90;;;;;;5034877;28;20040;-78
2022/05/30 10:04:38;;;;;;;0.50;0.32;;;20.20;57.00;;;;;;5048963;28;20091;-79
2022/05/30 10:07:15;;;;;;;0.98;0.50;;;20.30;56.50;;;;;;5025115;28;20470;-79
2022/05/30 10:09:54;;;;;;;1.17;0.30;;;20.60;56.40;;;;;;5050502;28;20063;-79
2022/05/30 10:12:44;;;;;;;0.63;0.40;;;21.30;54.10;;;;;;5032399;28;20029;-79
2022/05/30 10:15:24;;;;;;;2.72;0.30;;;21.70;56.00;;;;;;5050322;28;20024;-78
2022/05/30 10:17:51;;;;;;;1.95;0.20;;;22.50;53.00;;;;;;5032554;28;20116;-79
2022/05/30 10:20:36;;;;;;;2.70;0.20;;;23.40;51.40;;;;;;5050481;28;20023;-79
2022/05/30 10:29:27;;;;;;;3.10;0.50;;;24.30;48.60;;;;;;5047538;28;20090;-79
2022/05/30 10:31:54;;;;;;;2.60;0.40;;;24.50;47.50;;;;;;5061849;22;20057;-83
2022/05/30 10:34:43;;;;;;;3.35;0.35;;;24.70;46.00;;;;;;5020715;28;20028;-82
2022/05/30 10:37:38;;;;;;;0.75;0.25;;;25.00;44.20;;;;;;5025000;28;20032;-82
2022/05/30 10:40:22;;;;;;;1.00;0.10;;;25.00;43.90;;;;;;5026308;28;20028;-82
2022/05/30 10:43:08;;;;;;;0.57;0.30;;;24.00;43.80;;;;;;5030134;28;20526;-82
2022/05/30 10:45:42;;;;;;;1.40;0.50;;;23.00;45.30;;;;;;5029990;28;20029;-83
2022/05/30 10:48:16;;;;;;;0.55;0.20;;;22.70;51.60;;;;;;5013050;28;20021;-82
2022/05/30 10:50:53;;;;;;;1.52;0.30;;;22.60;49.70;;;;;;5023877;28;20013;-83
2022/05/30 10:53:54;;;;;;;1.98;0.50;;;22.00;51.30;;;;;;5028870;28;20052;-82
2022/05/30 10:56:34;;;;;;;1.75;0.30;;;21.70;50.70;;;;;;5029439;28;20171;-83
2022/05/30 10:59:05;;;;;;;1.52;0.43;;;21.80;54.50;;;;;;5028980;28;20017;-85
2022/05/30 11:02:00;;;;;;;;;;;22.10;52.80;;;;;;5039918;28;20040;-83
2022/05/30 11:04:53;;;;;;;3.30;0.30;;;21.90;50.70;;;;;;5010783;28;19952;-82
2022/05/30 11:07:58;;;;;;;0.38;0.30;;;21.50;50.50;;;;;;5028060;28;20060;-82
2022/05/30 11:10:43;;;;;;;1.00;0.20;;;20.60;54.70;;;;;;5021572;28;20053;-84
2022/05/30 11:13:38;;;;;;;2.78;0.30;;;20.50;53.20;;;;;;5033851;28;20032;-84
2022/05/30 11:16:22;;;;;;;1.48;0.30;;;20.90;56.70;;;;;;5033183;28;20025;-84
2022/05/30 11:18:51;;;;;;;1.98;0.20;;;21.00;51.40;;;;;;5033518;28;20060;-84
2022/05/30 11:21:31;;;;;;;0.47;0.30;;;21.70;55.50;;;;;;5033820;28;20144;-84
2022/05/30 11:24:01;;;;;;;2.20;0.45;;;20.60;57.80;;;;;;5033588;28;20398;-84
2022/05/30 11:26:48;;;;;;;0.82;0.40;;;21.80;53.40;;;;;;5033999;28;20028;-84
2022/05/30 11:29:22;;;;;;;2.20;0.50;;;22.90;51.90;;;;;;5033491;28;20176;-86
2022/05/30 11:32:24;;;;;;;0.10;0.10;;;23.00;48.70;;;;;;5061958;22;20064;-79
2022/05/30 11:35:14;;;;;;;1.33;0.52;;;23.20;51.30;;;;;;5033670;28;20029;-79
2022/05/30 11:37:54;;;;;;;1.33;0.22;;;23.30;49.80;;;;;;5033579;28;20022;-79
2022/05/30 11:40:53;;;;;;;0.57;0.32;;;22.40;48.90;;;;;;5033282;28;20017;-80
2022/05/30 11:43:51;;;;;;;1.63;0.30;;;21.70;50.50;;;;;;5032791;28;20091;-78
2022/05/30 11:46:52;;;;;;;2.25;0.30;;;20.70;51.50;;;;;;5028277;28;20083;-79
2022/05/30 11:49:23;;;;;;;1.50;0.38;;;20.30;54.80;;;;;;5029770;28;20386;-78
2022/05/30 11:51:57;;;;;;;0.50;0.30;;;20.50;55.70;;;;;;5033000;28;20022;-78
2022/05/30 11:54:36;;;;;;;0.70;0.25;;;21.10;54.80;;;;;;5027337;28;20025;-78
2022/05/30 11:57:39;;;;;;;0.95;0.30;;;21.00;56.80;;;;;;5026726;28;20021;-79
2022/05/30 12:00:32;;;;;;;1.55;0.20;;;21.50;51.90;;;;;;5029319;28;20033;-80
2022/05/30 12:03:24;;;;;;;2.38;0.47;;;21.80;52.00;;;;;;5030037;28;20418;-79
2022/05/30 12:05:58;;;;;;;1.35;0.22;;;22.20;51.80;;;;;;5032233;28;20020;-79
2022/05/30 12:08:49;;;;;;;0.28;0.28;;;22.20;50.20;;;;;;5032883;28;20364;-78
2022/05/30 12:11:15;;;;;;;1.40;0.45;;;22.00;50.80;;;;;;5032921;28;20417;-78
2022/05/30 12:13:59;;;;;;;2.58;0.30;;;22.50;49.90;;;;;;5032705;28;20481;-78
2022/05/30 12:16:46;;;;;;;2.35;0.95;;;23.00;51.20;;;;;;5032519;28;20030;-78
2022/05/30 12:25:36;;;;;;;0.88;0.30;;;23.80;48.10;;;;;;5028029;28;20060;-79
2022/05/30 12:28:06;;;;;;;1.52;0.40;;;23.30;46.80;;;;;;5032643;28;20028;-79
2022/05/30 12:30:35;;;;;;;1.25;0.60;;;22.70;48.20;;;;;;5062755;22;20044;-78
2022/05/30 12:33:21;;;;;;;1.77;0.38;;;22.60;46.60;;;;;;5034793;28;20083;-79
2022/05/30 12:35:47;;;;;;;0.60;0.30;;;23.00;46.90;;;;;;5052704;28;20014;-79
2022/05/30 12:38:16;;;;;;;0.85;0.28;;;22.90;47.80;;;;;;5052816;28;20025;-79
2022/05/30 12:40:54;;;;;;;1.88;0.30;;;23.40;51.30;;;;;;5052793;28;20429;-79
2022/05/30 12:43:23;;;;;;;2.33;0.40;;;23.80;47.80;;;;;;5045463;28;20029;-79
2022/05/30 12:45:55;;;;;;;1.08;0.20;;;25.00;47.00;;;;;;5051993;28;20048;-78
2022/05/30 12:48:52;;;;;;;0.45;0.10;;;25.90;44.30;;;;;;5052502;28;20029;-79
2022/05/30 12:51:39;;;;;;;2.70;0.20;;;24.90;41.90;;;;;;5034191;28;20084;-78
2022/05/30 12:54:07;;;;;;;0.40;0.30;;;24.70;45.00;;;;;;5052019;28;20067;-79
2022/05/30 12:56:39;;;;;;;0.40;0.20;;;25.10;44.40;;;;;;5034254;28;20023;-79
2022/05/30 12:59:11;;;;;;;1.52;0.40;;;24.90;44.50;;;;;;5052050;28;20021;-78
2022/05/30 13:01:43;;;;;;;1.25;0.30;;;24.10;45.30;;;;;;5051712;28;20025;-78
2022/05/30 13:04:08;;;;;;;1.02;0.30;;;23.90;49.00;;;;;;5051875;28;20029;-78
2022/05/30 13:06:52;;;;;;;1.63;0.30;;;24.50;46.40;;;;;;5033843;28;20040;-78
2022/05/30 13:09:33;;;;;;;1.20;0.30;;;24.50;46.40;;;;;;5051923;28;20025;-78
2022/05/30 13:11:59;;;;;;;1.17;0.22;;;25.00;46.40;;;;;;5050784;28;20110;-78
2022/05/30 13:14:36;;;;;;;4.03;0.47;;;23.90;45.90;;;;;;5051415;28;20424;-78
2022/05/30 13:17:18;;;;;;;1.38;0.20;;;23.10;48.00;;;;;;5044879;28;20585;-78
2022/05/30 13:19:47;;;;;;;1.23;0.85;;;22.80;49.80;;;;;;5045518;28;20040;-78
2022/05/30 13:22:15;;;;;;;4.50;0.40;;;22.90;49.50;;;;;;5051525;28;20531;-78
2022/05/30 13:24:41;;;;;;;0.20;0.20;;;22.70;48.70;;;;;;5051316;28;20029;-78
2022/05/30 13:27:07;;;;;;;1.38;0.20;;;23.30;49.80;;;;;;5033736;28;20381;-78
2022/05/30 13:29:35;;;;;;;0.70;0.10;;;23.90;47.00;;;;;;5051207;28;20492;-79
2022/05/30 13:32:03;;;;;;;0.73;0.28;;;24.70;46.30;;;;;;5060168;22;20044;-86
2022/05/30 13:34:32;;;;;;;1.35;0.50;;;24.80;47.20;;;;;;5036085;28;20030;-87
2022/05/30 13:36:59;;;;;;;0.57;0.30;;;25.00;46.80;;;;;;5031938;28;20095;-87
2022/05/30 13:39:25;;;;;;;2.45;0.50;;;24.50;44.40;;;;;;5031717;28;20024;-87
2022/05/30 13:41:51;;;;;;;0.90;0.28;;;23.40;47.20;;;;;;5030196;28;20025;-86
2022/05/30 13:44:20;;;;;;;2.38;0.30;;;23.00;49.10;;;;;;5031674;28;20457;-86